Nearby METAR Reports

 

K9MN - St Mary Hospital, Minnesota, USA
Distance from station: SW 3mi, 4km
Updated: 01/27/2021 12:15am
Overcast
Overcast
 Wind from NNW
Wind: NNW 3 mph , 6 km/h
Temperature: 14°F , -10°C
Dew Point: 3°F , -16°C
Humidity: 62%
Barometer: 30.31 inHg , 1026.4 hPa
Clouds: Overcast
Visibility: 10 miles , 16 km
Cloud details: Overcast 7500 ft
2021/01/27 06:15 K9MN 270615Z AUTO 33003KT 10SM OVC075 M10/M16 A3031 RMK AO1 T11021156
KRST - Rochester, Minnesota, USA
Distance from station: SSW 10mi, 16km
Updated: 01/26/2021 11:54pm
Overcast
Overcast
 Wind from N
Wind: N 8 mph , 13 km/h
Temperature: 14°F , -10°C
Wind Chill: 3°F , -16°C
Dew Point: 3°F , -16°C
Humidity: 62%
Barometer: 30.28 inHg , 1025.4 hPa
Clouds: Overcast
Visibility: 10 miles , 16 km
Cloud details: Overcast 7500 ft
2021/01/27 05:54 KRST 270554Z AUTO 36007KT 10SM OVC075 M10/M16 A3028 RMK AO2 SLP280 T11001156 11089 21106 410671111 53018
 
KTOB - Dodge Center, Minnesota, USA
Distance from station: W 19mi, 30km
Updated: 01/27/2021 12:15am
Partly cloudy
Partly cloudy
 Wind from N
Wind: N 7 mph , 11 km/h
Temperature: 9°F , -13°C
Wind Chill: -2°F , -19°C
Dew Point: 1°F , -17°C
Humidity: 72%
Barometer: 30.29 inHg , 1025.7 hPa
Clouds: Partly cloudy
Visibility: 10 miles , 16 km
Cloud details: Partly cloudy 8000 ft
2021/01/27 06:15 KTOB 270615Z AUTO 36006KT 10SM SCT080 M13/M17 A3029 RMK AO2
KFKA - Preston, Minnesota, USA
Distance from station: SSE 28mi, 45km
Updated: 01/27/2021 12:15am
Overcast
Overcast
 Wind from N
Wind: N 6 mph , 9 km/h
Temperature: 14°F , -10°C
Wind Chill: 5°F , -15°C
Dew Point: 7°F , -14°C
Humidity: 73%
Barometer: 30.29 inHg , 1025.7 hPa
Clouds: Overcast
Visibility: 10 miles , 16 km
Cloud details: Overcast 7500 ft
2021/01/27 06:15 KFKA 270615Z AUTO 01005KT 10SM OVC075 M10/M14 A3029 RMK AO2 T11021136
 
KAUM - Austin Muni, Minnesota, USA
Distance from station: SW 35mi, 57km
Updated: 01/27/2021 12:15am
Overcast
Overcast
 Wind from calm
Wind: Calm
Temperature: 14°F , -10°C
Dew Point: 7°F , -14°C
Humidity: 73%
Barometer: 30.30 inHg , 1026.1 hPa
Clouds: Overcast
Visibility: 10 miles , 16 km
Cloud details: Overcast 7000 ft
2021/01/27 06:15 KAUM 270615Z AUTO 00000KT 10SM OVC070 M10/M14 A3030 RMK AO2
KONA - Winona Muni, Minnesota, USA
Distance from station: E 37mi, 59km
Updated: 01/27/2021 12:15am
Mostly cloudy
Mostly cloudy
 Wind from NNW
Wind: NNW 5 mph , 7 km/h
Temperature: 12°F , -11°C
Wind Chill: 4°F , -16°C
Dew Point: 9°F , -13°C
Humidity: 85%
Barometer: 30.34 inHg , 1027.4 hPa
Clouds: Mostly cloudy
Visibility: 10 miles , 16 km
Cloud details: Mostly cloudy 8500 ft
2021/01/27 06:15 KONA 270615Z AUTO 34004KT 10SM BKN085 M11/M13 A3034 RMK AO2
 
KRGK - Red Wing, Minnesota, USA
Distance from station: N 38mi, 61km
Updated: 01/27/2021 12:15am
Clear
Clear
 Wind from calm
Wind: Calm
Temperature: 10°F , -12°C
Dew Point: -4°F , -20°C
Humidity: 52%
Barometer: 30.34 inHg , 1027.4 hPa
Clouds: Clear
Visibility: 10 miles , 16 km
2021/01/27 06:15 KRGK 270615Z AUTO 00000KT 10SM CLR M12/M20 A3034 RMK AO2
KOWA - Owatonna, Minnesota, USA
Distance from station: W 41mi, 65km
Updated: 01/27/2021 12:13am
Clear
Clear
 Wind from N
Wind: N 6 mph , 9 km/h
Temperature: 10°F , -12°C
Wind Chill: 0°F , -18°C
Dew Point: -2°F , -19°C
Humidity: 56%
Barometer: 30.32 inHg , 1026.8 hPa
Clouds: Clear
Visibility: 10 miles , 16 km
2021/01/27 06:13 KOWA 270613Z AUTO 01005KT 10SM CLR M12/M19 A3032 RMK AO2
 
KSYN - Stanton, Minnesota, USA
Distance from station: NW 42mi, 68km
Updated: 01/27/2021 12:15am
Clear
Clear
 Wind from NNE
Wind: NNE 3 mph , 6 km/h
Temperature: 9°F , -13°C
Dew Point: -2°F , -19°C
Humidity: 61%
Barometer: 30.33 inHg , 1027.1 hPa
Clouds: Clear
Visibility: 10 miles , 16 km
2021/01/27 06:15 KSYN 270615Z AUTO 02003KT 10SM CLR M13/M19 A3033 RMK AO2 T11351188
KFBL - Faribault Muni, Minnesota, USA
Distance from station: WNW 48mi, 77km
Updated: 01/27/2021 12:15am
Clear
Clear
 Wind from calm
Wind: Calm
Temperature: 3°F , -16°C
Dew Point: -2°F , -19°C
Humidity: 78%
Barometer: 30.34 inHg , 1027.4 hPa
Clouds: Clear
Visibility: 10 miles , 16 km
2021/01/27 06:15 KFBL 270615Z AUTO 00000KT 10SM CLR M16/M19 A3034 RMK AO2